sensor_id;sensor_type;location;lat;lon;timestamp;P1;durP1;ratioP1;P2;durP2;ratioP2
43152;SDS011;28756;49.064;9.290;2022-12-29T00:00:09;2.10;;;1.30;;
43152;SDS011;28756;49.064;9.290;2022-12-29T00:02:36;3.45;;;1.80;;
43152;SDS011;28756;49.064;9.290;2022-12-29T00:05:01;2.28;;;1.50;;
43152;SDS011;28756;49.064;9.290;2022-12-29T00:07:28;2.70;;;1.63;;
43152;SDS011;28756;49.064;9.290;2022-12-29T00:09:54;3.25;;;1.80;;
43152;SDS011;28756;49.064;9.290;2022-12-29T00:12:19;3.40;;;1.48;;
43152;SDS011;28756;49.064;9.290;2022-12-29T00:14:45;2.22;;;1.63;;
43152;SDS011;28756;49.064;9.290;2022-12-29T00:17:29;2.47;;;1.58;;
43152;SDS011;28756;49.064;9.290;2022-12-29T00:19:55;2.47;;;1.60;;
43152;SDS011;28756;49.064;9.290;2022-12-29T00:22:39;2.35;;;1.67;;
43152;SDS011;28756;49.064;9.290;2022-12-29T00:25:23;2.50;;;1.60;;
43152;SDS011;28756;49.064;9.290;2022-12-29T00:28:08;3.42;;;1.42;;
43152;SDS011;28756;49.064;9.290;2022-12-29T00:30:58;2.70;;;1.60;;
43152;SDS011;28756;49.064;9.290;2022-12-29T00:33:44;2.55;;;1.60;;
43152;SDS011;28756;49.064;9.290;2022-12-29T00:36:32;2.70;;;1.50;;
43152;SDS011;28756;49.064;9.290;2022-12-29T00:39:06;2.80;;;1.58;;
43152;SDS011;28756;49.064;9.290;2022-12-29T00:41:55;2.20;;;1.50;;
43152;SDS011;28756;49.064;9.290;2022-12-29T00:44:39;1.77;;;1.48;;
43152;SDS011;28756;49.064;9.290;2022-12-29T00:47:05;2.28;;;1.45;;
43152;SDS011;28756;49.064;9.290;2022-12-29T00:49:31;2.53;;;1.50;;
43152;SDS011;28756;49.064;9.290;2022-12-29T00:52:04;2.22;;;1.50;;
43152;SDS011;28756;49.064;9.290;2022-12-29T00:54:34;4.20;;;1.60;;
43152;SDS011;28756;49.064;9.290;2022-12-29T00:57:02;2.40;;;1.50;;
43152;SDS011;28756;49.064;9.290;2022-12-29T00:59:30;2.00;;;1.45;;
43152;SDS011;28756;49.064;9.290;2022-12-29T01:01:56;3.80;;;1.35;;
43152;SDS011;28756;49.064;9.290;2022-12-29T01:04:22;1.98;;;1.20;;
43152;SDS011;28756;49.064;9.290;2022-12-29T01:06:51;2.58;;;1.38;;
43152;SDS011;28756;49.064;9.290;2022-12-29T01:09:17;6.05;;;1.70;;
43152;SDS011;28756;49.064;9.290;2022-12-29T01:12:03;1.95;;;1.40;;
43152;SDS011;28756;49.064;9.290;2022-12-29T01:14:30;2.45;;;1.48;;
43152;SDS011;28756;49.064;9.290;2022-12-29T01:16:56;3.58;;;1.63;;
43152;SDS011;28756;49.064;9.290;2022-12-29T01:19:22;1.80;;;1.27;;
43152;SDS011;28756;49.064;9.290;2022-12-29T01:21:49;2.80;;;1.40;;
43152;SDS011;28756;49.064;9.290;2022-12-29T01:24:15;1.92;;;1.10;;
43152;SDS011;28756;49.064;9.290;2022-12-29T01:26:42;2.13;;;1.55;;
43152;SDS011;28756;49.064;9.290;2022-12-29T01:29:09;3.08;;;1.45;;
43152;SDS011;28756;49.064;9.290;2022-12-29T01:31:35;2.38;;;1.40;;
43152;SDS011;28756;49.064;9.290;2022-12-29T01:34:01;2.30;;;1.15;;
43152;SDS011;28756;49.064;9.290;2022-12-29T01:36:27;2.05;;;1.20;;
43152;SDS011;28756;49.064;9.290;2022-12-29T01:38:52;2.30;;;1.40;;
43152;SDS011;28756;49.064;9.290;2022-12-29T01:41:18;1.77;;;1.30;;
43152;SDS011;28756;49.064;9.290;2022-12-29T01:43:45;1.83;;;1.23;;
43152;SDS011;28756;49.064;9.290;2022-12-29T01:51:33;1.85;;;1.17;;
43152;SDS011;28756;49.064;9.290;2022-12-29T01:54:29;1.48;;;1.05;;
43152;SDS011;28756;49.064;9.290;2022-12-29T01:57:13;2.03;;;1.30;;
43152;SDS011;28756;49.064;9.290;2022-12-29T01:59:46;1.30;;;1.00;;
43152;SDS011;28756;49.064;9.290;2022-12-29T02:02:21;3.25;;;1.60;;
43152;SDS011;28756;49.064;9.290;2022-12-29T02:04:48;2.50;;;1.23;;
43152;SDS011;28756;49.064;9.290;2022-12-29T02:07:18;1.92;;;1.10;;
43152;SDS011;28756;49.064;9.290;2022-12-29T02:09:47;1.67;;;1.10;;
43152;SDS011;28756;49.064;9.290;2022-12-29T02:12:16;1.15;;;0.88;;
43152;SDS011;28756;49.064;9.290;2022-12-29T02:14:45;1.83;;;0.90;;
43152;SDS011;28756;49.064;9.290;2022-12-29T02:20:05;1.88;;;1.23;;
43152;SDS011;28756;49.064;9.290;2022-12-29T02:35:14;2.38;;;1.20;;
43152;SDS011;28756;49.064;9.290;2022-12-29T02:50:08;2.15;;;1.08;;
43152;SDS011;28756;49.064;9.290;2022-12-29T02:53:26;3.20;;;1.30;;
43152;SDS011;28756;49.064;9.290;2022-12-29T02:55:36;1.70;;;1.10;;
43152;SDS011;28756;49.064;9.290;2022-12-29T03:00:34;3.33;;;1.30;;
43152;SDS011;28756;49.064;9.290;2022-12-29T03:05:49;1.95;;;1.05;;
43152;SDS011;28756;49.064;9.290;2022-12-29T03:08:44;2.67;;;1.35;;
43152;SDS011;28756;49.064;9.290;2022-12-29T03:15:15;1.92;;;1.30;;
43152;SDS011;28756;49.064;9.290;2022-12-29T03:18:13;4.10;;;1.20;;
43152;SDS011;28756;49.064;9.290;2022-12-29T03:23:18;2.55;;;1.17;;
43152;SDS011;28756;49.064;9.290;2022-12-29T03:25:47;2.88;;;1.17;;
43152;SDS011;28756;49.064;9.290;2022-12-29T03:28:18;3.88;;;1.17;;
43152;SDS011;28756;49.064;9.290;2022-12-29T03:30:53;2.42;;;1.08;;
43152;SDS011;28756;49.064;9.290;2022-12-29T03:33:21;2.00;;;1.20;;
43152;SDS011;28756;49.064;9.290;2022-12-29T03:35:51;3.28;;;1.00;;
43152;SDS011;28756;49.064;9.290;2022-12-29T03:38:33;3.70;;;1.02;;
43152;SDS011;28756;49.064;9.290;2022-12-29T03:41:28;1.30;;;0.90;;
43152;SDS011;28756;49.064;9.290;2022-12-29T03:43:57;1.70;;;0.90;;
43152;SDS011;28756;49.064;9.290;2022-12-29T03:46:23;2.28;;;1.10;;
43152;SDS011;28756;49.064;9.290;2022-12-29T03:48:49;4.20;;;1.05;;
43152;SDS011;28756;49.064;9.290;2022-12-29T03:51:15;1.98;;;0.88;;
43152;SDS011;28756;49.064;9.290;2022-12-29T03:53:40;3.60;;;0.90;;
43152;SDS011;28756;49.064;9.290;2022-12-29T03:56:06;2.15;;;0.80;;
43152;SDS011;28756;49.064;9.290;2022-12-29T03:58:32;1.35;;;0.80;;
43152;SDS011;28756;49.064;9.290;2022-12-29T04:00:57;2.03;;;0.90;;
43152;SDS011;28756;49.064;9.290;2022-12-29T04:03:23;3.47;;;1.00;;
43152;SDS011;28756;49.064;9.290;2022-12-29T04:05:49;3.10;;;0.90;;
43152;SDS011;28756;49.064;9.290;2022-12-29T04:08:14;1.75;;;0.90;;
43152;SDS011;28756;49.064;9.290;2022-12-29T04:10:40;2.97;;;1.10;;
43152;SDS011;28756;49.064;9.290;2022-12-29T04:13:06;1.52;;;0.85;;
43152;SDS011;28756;49.064;9.290;2022-12-29T04:15:31;2.47;;;1.00;;
43152;SDS011;28756;49.064;9.290;2022-12-29T04:17:57;2.75;;;0.82;;
43152;SDS011;28756;49.064;9.290;2022-12-29T04:20:23;1.58;;;1.00;;
43152;SDS011;28756;49.064;9.290;2022-12-29T04:23:07;1.73;;;1.00;;
43152;SDS011;28756;49.064;9.290;2022-12-29T04:25:33;1.75;;;0.80;;
43152;SDS011;28756;49.064;9.290;2022-12-29T04:27:59;3.53;;;1.00;;
43152;SDS011;28756;49.064;9.290;2022-12-29T04:30:25;2.17;;;0.85;;
43152;SDS011;28756;49.064;9.290;2022-12-29T04:32:51;2.53;;;1.10;;
43152;SDS011;28756;49.064;9.290;2022-12-29T04:35:18;0.98;;;0.77;;
43152;SDS011;28756;49.064;9.290;2022-12-29T04:37:44;1.50;;;0.90;;
43152;SDS011;28756;49.064;9.290;2022-12-29T04:40:10;2.20;;;0.73;;
43152;SDS011;28756;49.064;9.290;2022-12-29T04:42:36;2.08;;;1.10;;
43152;SDS011;28756;49.064;9.290;2022-12-29T04:45:02;2.55;;;0.90;;
43152;SDS011;28756;49.064;9.290;2022-12-29T04:47:28;2.17;;;0.90;;
43152;SDS011;28756;49.064;9.290;2022-12-29T04:49:54;1.58;;;0.73;;
43152;SDS011;28756;49.064;9.290;2022-12-29T04:52:19;1.35;;;0.77;;
43152;SDS011;28756;49.064;9.290;2022-12-29T04:54:45;1.73;;;0.98;;
43152;SDS011;28756;49.064;9.290;2022-12-29T04:57:11;3.70;;;0.80;;
43152;SDS011;28756;49.064;9.290;2022-12-29T04:59:36;2.85;;;0.90;;
43152;SDS011;28756;49.064;9.290;2022-12-29T05:02:02;2.72;;;0.88;;
43152;SDS011;28756;49.064;9.290;2022-12-29T05:04:28;5.47;;;1.42;;
43152;SDS011;28756;49.064;9.290;2022-12-29T05:06:53;4.35;;;0.88;;
43152;SDS011;28756;49.064;9.290;2022-12-29T05:09:19;1.70;;;0.73;;
43152;SDS011;28756;49.064;9.290;2022-12-29T05:11:45;1.75;;;0.80;;
43152;SDS011;28756;49.064;9.290;2022-12-29T05:14:11;2.35;;;0.93;;
43152;SDS011;28756;49.064;9.290;2022-12-29T05:16:36;1.65;;;0.93;;
43152;SDS011;28756;49.064;9.290;2022-12-29T05:19:02;1.48;;;0.70;;
43152;SDS011;28756;49.064;9.290;2022-12-29T05:21:28;1.75;;;0.70;;
43152;SDS011;28756;49.064;9.290;2022-12-29T05:23:53;1.63;;;0.80;;
43152;SDS011;28756;49.064;9.290;2022-12-29T05:26:19;3.05;;;0.90;;
43152;SDS011;28756;49.064;9.290;2022-12-29T05:28:45;1.60;;;0.80;;
43152;SDS011;28756;49.064;9.290;2022-12-29T05:31:10;2.67;;;0.98;;
43152;SDS011;28756;49.064;9.290;2022-12-29T05:33:36;1.48;;;0.88;;
43152;SDS011;28756;49.064;9.290;2022-12-29T05:36:08;3.50;;;1.20;;
43152;SDS011;28756;49.064;9.290;2022-12-29T05:38:38;2.72;;;1.08;;
43152;SDS011;28756;49.064;9.290;2022-12-29T05:41:04;2.40;;;0.90;;
43152;SDS011;28756;49.064;9.290;2022-12-29T05:43:30;3.42;;;1.05;;
43152;SDS011;28756;49.064;9.290;2022-12-29T05:45:56;3.08;;;1.10;;
43152;SDS011;28756;49.064;9.290;2022-12-29T05:48:22;2.97;;;1.10;;
43152;SDS011;28756;49.064;9.290;2022-12-29T05:50:48;2.35;;;1.10;;
43152;SDS011;28756;49.064;9.290;2022-12-29T05:53:15;2.22;;;0.80;;
43152;SDS011;28756;49.064;9.290;2022-12-29T05:55:42;1.73;;;1.00;;
43152;SDS011;28756;49.064;9.290;2022-12-29T05:58:09;1.98;;;0.80;;
43152;SDS011;28756;49.064;9.290;2022-12-29T06:00:35;2.75;;;1.00;;
43152;SDS011;28756;49.064;9.290;2022-12-29T06:03:01;1.42;;;1.10;;
43152;SDS011;28756;49.064;9.290;2022-12-29T06:05:27;2.20;;;1.10;;
43152;SDS011;28756;49.064;9.290;2022-12-29T06:07:52;1.90;;;0.90;;
43152;SDS011;28756;49.064;9.290;2022-12-29T06:10:18;5.07;;;1.00;;
43152;SDS011;28756;49.064;9.290;2022-12-29T06:12:44;1.77;;;1.00;;
43152;SDS011;28756;49.064;9.290;2022-12-29T06:15:10;2.47;;;1.00;;
43152;SDS011;28756;49.064;9.290;2022-12-29T06:17:35;3.22;;;1.15;;
43152;SDS011;28756;49.064;9.290;2022-12-29T06:20:01;2.72;;;1.05;;
43152;SDS011;28756;49.064;9.290;2022-12-29T06:22:27;2.63;;;1.10;;
43152;SDS011;28756;49.064;9.290;2022-12-29T06:24:53;1.65;;;0.93;;
43152;SDS011;28756;49.064;9.290;2022-12-29T06:27:19;1.80;;;1.00;;
43152;SDS011;28756;49.064;9.290;2022-12-29T06:29:45;3.47;;;1.10;;
43152;SDS011;28756;49.064;9.290;2022-12-29T06:32:11;2.35;;;1.00;;
43152;SDS011;28756;49.064;9.290;2022-12-29T06:34:36;1.95;;;1.10;;
43152;SDS011;28756;49.064;9.290;2022-12-29T06:37:02;2.55;;;1.05;;
43152;SDS011;28756;49.064;9.290;2022-12-29T06:39:28;1.92;;;1.00;;
43152;SDS011;28756;49.064;9.290;2022-12-29T06:41:54;2.08;;;1.17;;
43152;SDS011;28756;49.064;9.290;2022-12-29T06:44:20;3.35;;;1.10;;
43152;SDS011;28756;49.064;9.290;2022-12-29T06:46:46;1.55;;;1.02;;
43152;SDS011;28756;49.064;9.290;2022-12-29T06:49:13;2.20;;;0.90;;
43152;SDS011;28756;49.064;9.290;2022-12-29T06:51:39;1.98;;;1.10;;
43152;SDS011;28756;49.064;9.290;2022-12-29T06:54:05;1.67;;;0.90;;
43152;SDS011;28756;49.064;9.290;2022-12-29T06:56:30;1.05;;;0.75;;
43152;SDS011;28756;49.064;9.290;2022-12-29T06:58:56;1.88;;;1.15;;
43152;SDS011;28756;49.064;9.290;2022-12-29T07:01:25;1.73;;;1.20;;
43152;SDS011;28756;49.064;9.290;2022-12-29T07:03:50;2.08;;;1.08;;
43152;SDS011;28756;49.064;9.290;2022-12-29T07:06:16;2.30;;;1.10;;
43152;SDS011;28756;49.064;9.290;2022-12-29T07:08:42;1.55;;;1.20;;
43152;SDS011;28756;49.064;9.290;2022-12-29T07:11:08;4.40;;;1.52;;
43152;SDS011;28756;49.064;9.290;2022-12-29T07:13:34;1.70;;;1.20;;
43152;SDS011;28756;49.064;9.290;2022-12-29T07:16:04;3.08;;;1.20;;
43152;SDS011;28756;49.064;9.290;2022-12-29T07:18:34;2.22;;;1.10;;
43152;SDS011;28756;49.064;9.290;2022-12-29T07:21:00;2.22;;;1.00;;
43152;SDS011;28756;49.064;9.290;2022-12-29T07:23:26;1.95;;;1.02;;
43152;SDS011;28756;49.064;9.290;2022-12-29T07:25:59;2.70;;;1.00;;
43152;SDS011;28756;49.064;9.290;2022-12-29T07:28:26;1.75;;;1.17;;
43152;SDS011;28756;49.064;9.290;2022-12-29T07:30:51;1.92;;;1.10;;
43152;SDS011;28756;49.064;9.290;2022-12-29T07:33:17;4.65;;;1.23;;
43152;SDS011;28756;49.064;9.290;2022-12-29T07:35:43;2.40;;;1.00;;
43152;SDS011;28756;49.064;9.290;2022-12-29T07:38:09;2.17;;;1.10;;
43152;SDS011;28756;49.064;9.290;2022-12-29T07:40:34;2.20;;;1.30;;
43152;SDS011;28756;49.064;9.290;2022-12-29T07:43:00;2.65;;;1.55;;
43152;SDS011;28756;49.064;9.290;2022-12-29T07:45:26;3.25;;;1.05;;
43152;SDS011;28756;49.064;9.290;2022-12-29T07:47:51;2.15;;;1.10;;
43152;SDS011;28756;49.064;9.290;2022-12-29T07:50:17;1.48;;;1.00;;
43152;SDS011;28756;49.064;9.290;2022-12-29T07:52:43;3.60;;;1.10;;
43152;SDS011;28756;49.064;9.290;2022-12-29T07:55:09;1.63;;;1.08;;
43152;SDS011;28756;49.064;9.290;2022-12-29T07:57:35;2.40;;;1.20;;
43152;SDS011;28756;49.064;9.290;2022-12-29T08:00:01;1.92;;;1.10;;
43152;SDS011;28756;49.064;9.290;2022-12-29T08:02:28;4.55;;;2.85;;
43152;SDS011;28756;49.064;9.290;2022-12-29T08:04:54;6.28;;;3.00;;
43152;SDS011;28756;49.064;9.290;2022-12-29T08:07:20;3.97;;;2.50;;
43152;SDS011;28756;49.064;9.290;2022-12-29T08:09:46;3.55;;;2.60;;
43152;SDS011;28756;49.064;9.290;2022-12-29T08:12:12;2.40;;;1.85;;
43152;SDS011;28756;49.064;9.290;2022-12-29T08:14:37;3.67;;;1.80;;
43152;SDS011;28756;49.064;9.290;2022-12-29T08:17:03;2.47;;;1.52;;
43152;SDS011;28756;49.064;9.290;2022-12-29T08:19:29;2.67;;;1.52;;
43152;SDS011;28756;49.064;9.290;2022-12-29T08:21:55;4.57;;;2.33;;
43152;SDS011;28756;49.064;9.290;2022-12-29T08:24:20;1.88;;;1.50;;
43152;SDS011;28756;49.064;9.290;2022-12-29T08:26:46;2.40;;;1.40;;
43152;SDS011;28756;49.064;9.290;2022-12-29T08:29:12;2.13;;;1.40;;
43152;SDS011;28756;49.064;9.290;2022-12-29T08:31:37;4.32;;;1.40;;
43152;SDS011;28756;49.064;9.290;2022-12-29T08:34:03;3.03;;;1.20;;
43152;SDS011;28756;49.064;9.290;2022-12-29T08:36:29;2.08;;;1.30;;
43152;SDS011;28756;49.064;9.290;2022-12-29T08:38:56;1.63;;;1.08;;
43152;SDS011;28756;49.064;9.290;2022-12-29T08:41:22;2.42;;;1.40;;
43152;SDS011;28756;49.064;9.290;2022-12-29T08:43:48;2.03;;;1.20;;
43152;SDS011;28756;49.064;9.290;2022-12-29T08:46:15;2.72;;;1.10;;
43152;SDS011;28756;49.064;9.290;2022-12-29T08:48:42;2.63;;;1.30;;
43152;SDS011;28756;49.064;9.290;2022-12-29T08:51:08;2.75;;;1.73;;
43152;SDS011;28756;49.064;9.290;2022-12-29T08:53:34;4.15;;;1.50;;
43152;SDS011;28756;49.064;9.290;2022-12-29T08:56:00;2.13;;;1.30;;
43152;SDS011;28756;49.064;9.290;2022-12-29T08:58:26;3.30;;;1.73;;
43152;SDS011;28756;49.064;9.290;2022-12-29T09:00:53;4.20;;;1.33;;
43152;SDS011;28756;49.064;9.290;2022-12-29T09:03:21;4.45;;;2.20;;
43152;SDS011;28756;49.064;9.290;2022-12-29T09:05:48;5.78;;;2.28;;
43152;SDS011;28756;49.064;9.290;2022-12-29T09:08:16;2.88;;;1.70;;
43152;SDS011;28756;49.064;9.290;2022-12-29T09:10:42;2.78;;;1.80;;
43152;SDS011;28756;49.064;9.290;2022-12-29T09:13:09;2.45;;;1.50;;
43152;SDS011;28756;49.064;9.290;2022-12-29T09:15:36;3.05;;;1.85;;
43152;SDS011;28756;49.064;9.290;2022-12-29T09:18:03;3.15;;;2.05;;
43152;SDS011;28756;49.064;9.290;2022-12-29T09:20:29;2.00;;;1.50;;
43152;SDS011;28756;49.064;9.290;2022-12-29T09:22:54;2.25;;;1.73;;
43152;SDS011;28756;49.064;9.290;2022-12-29T09:25:20;3.25;;;1.40;;
43152;SDS011;28756;49.064;9.290;2022-12-29T09:27:49;2.80;;;1.42;;
43152;SDS011;28756;49.064;9.290;2022-12-29T09:30:17;3.15;;;1.85;;
43152;SDS011;28756;49.064;9.290;2022-12-29T09:32:44;2.78;;;1.70;;
43152;SDS011;28756;49.064;9.290;2022-12-29T09:35:19;3.88;;;1.80;;
43152;SDS011;28756;49.064;9.290;2022-12-29T09:37:45;4.20;;;2.47;;
43152;SDS011;28756;49.064;9.290;2022-12-29T09:40:44;4.20;;;2.13;;
43152;SDS011;28756;49.064;9.290;2022-12-29T09:46:27;2.78;;;2.10;;
43152;SDS011;28756;49.064;9.290;2022-12-29T09:49:15;10.10;;;4.32;;
43152;SDS011;28756;49.064;9.290;2022-12-29T09:52:03;4.72;;;2.70;;
43152;SDS011;28756;49.064;9.290;2022-12-29T09:54:38;3.38;;;2.13;;
43152;SDS011;28756;49.064;9.290;2022-12-29T09:57:26;3.45;;;2.10;;
43152;SDS011;28756;49.064;9.290;2022-12-29T10:00:22;4.35;;;2.40;;
43152;SDS011;28756;49.064;9.290;2022-12-29T10:03:13;3.97;;;2.60;;
43152;SDS011;28756;49.064;9.290;2022-12-29T10:08:28;2.58;;;1.50;;
43152;SDS011;28756;49.064;9.290;2022-12-29T10:11:20;3.85;;;2.17;;
43152;SDS011;28756;49.064;9.290;2022-12-29T10:17:01;7.25;;;2.80;;
43152;SDS011;28756;49.064;9.290;2022-12-29T10:23:11;3.42;;;1.75;;
43152;SDS011;28756;49.064;9.290;2022-12-29T10:26:09;3.55;;;1.30;;
43152;SDS011;28756;49.064;9.290;2022-12-29T10:28:43;3.08;;;1.40;;
43152;SDS011;28756;49.064;9.290;2022-12-29T10:31:21;5.43;;;1.50;;
43152;SDS011;28756;49.064;9.290;2022-12-29T10:34:00;2.65;;;1.60;;
43152;SDS011;28756;49.064;9.290;2022-12-29T10:36:44;2.58;;;1.50;;
43152;SDS011;28756;49.064;9.290;2022-12-29T10:39:16;2.58;;;1.20;;
43152;SDS011;28756;49.064;9.290;2022-12-29T10:42:28;1.75;;;1.23;;
43152;SDS011;28756;49.064;9.290;2022-12-29T10:45:02;2.88;;;1.63;;
43152;SDS011;28756;49.064;9.290;2022-12-29T10:47:32;2.95;;;1.30;;
43152;SDS011;28756;49.064;9.290;2022-12-29T10:50:03;1.95;;;1.20;;
43152;SDS011;28756;49.064;9.290;2022-12-29T10:52:31;1.58;;;1.02;;
43152;SDS011;28756;49.064;9.290;2022-12-29T10:55:03;1.48;;;0.80;;
43152;SDS011;28756;49.064;9.290;2022-12-29T10:57:41;2.08;;;0.90;;
43152;SDS011;28756;49.064;9.290;2022-12-29T11:00:13;4.25;;;1.10;;
43152;SDS011;28756;49.064;9.290;2022-12-29T11:02:51;2.20;;;0.90;;
43152;SDS011;28756;49.064;9.290;2022-12-29T11:08:22;0.93;;;0.70;;
43152;SDS011;28756;49.064;9.290;2022-12-29T11:10:57;1.77;;;0.90;;
43152;SDS011;28756;49.064;9.290;2022-12-29T11:13:29;3.53;;;0.90;;
43152;SDS011;28756;49.064;9.290;2022-12-29T11:16:11;2.33;;;1.00;;
43152;SDS011;28756;49.064;9.290;2022-12-29T11:18:37;1.23;;;0.77;;
43152;SDS011;28756;49.064;9.290;2022-12-29T11:21:06;2.00;;;0.98;;
43152;SDS011;28756;49.064;9.290;2022-12-29T11:24:00;1.95;;;0.90;;
43152;SDS011;28756;49.064;9.290;2022-12-29T11:26:43;3.25;;;0.93;;
43152;SDS011;28756;49.064;9.290;2022-12-29T11:31:45;3.58;;;0.88;;
43152;SDS011;28756;49.064;9.290;2022-12-29T11:34:33;1.73;;;0.80;;
43152;SDS011;28756;49.064;9.290;2022-12-29T11:37:02;1.70;;;0.80;;
43152;SDS011;28756;49.064;9.290;2022-12-29T11:45:06;4.85;;;1.05;;
43152;SDS011;28756;49.064;9.290;2022-12-29T11:48:07;3.15;;;0.98;;
43152;SDS011;28756;49.064;9.290;2022-12-29T11:50:42;2.38;;;0.70;;
43152;SDS011;28756;49.064;9.290;2022-12-29T11:53:24;1.38;;;0.88;;
43152;SDS011;28756;49.064;9.290;2022-12-29T11:56:02;1.70;;;0.85;;
43152;SDS011;28756;49.064;9.290;2022-12-29T11:58:33;1.80;;;0.85;;
43152;SDS011;28756;49.064;9.290;2022-12-29T12:01:16;3.00;;;0.90;;
43152;SDS011;28756;49.064;9.290;2022-12-29T12:03:54;2.10;;;0.80;;
43152;SDS011;28756;49.064;9.290;2022-12-29T12:06:39;3.63;;;1.10;;
43152;SDS011;28756;49.064;9.290;2022-12-29T12:09:49;2.08;;;0.90;;
43152;SDS011;28756;49.064;9.290;2022-12-29T12:15:22;3.38;;;0.90;;
43152;SDS011;28756;49.064;9.290;2022-12-29T12:20:54;1.00;;;0.80;;
43152;SDS011;28756;49.064;9.290;2022-12-29T12:26:28;2.13;;;0.90;;
43152;SDS011;28756;49.064;9.290;2022-12-29T12:32:01;2.50;;;0.80;;
43152;SDS011;28756;49.064;9.290;2022-12-29T12:34:41;1.98;;;0.80;;
43152;SDS011;28756;49.064;9.290;2022-12-29T12:54:44;0.93;;;0.50;;
43152;SDS011;28756;49.064;9.290;2022-12-29T13:00:14;0.88;;;0.50;;
43152;SDS011;28756;49.064;9.290;2022-12-29T13:05:57;1.42;;;0.60;;
43152;SDS011;28756;49.064;9.290;2022-12-29T13:17:59;1.05;;;0.70;;
43152;SDS011;28756;49.064;9.290;2022-12-29T13:26:35;1.35;;;0.82;;
43152;SDS011;28756;49.064;9.290;2022-12-29T13:29:40;0.98;;;0.80;;
43152;SDS011;28756;49.064;9.290;2022-12-29T13:38:03;2.05;;;0.60;;
43152;SDS011;28756;49.064;9.290;2022-12-29T13:40:56;1.23;;;0.73;;
43152;SDS011;28756;49.064;9.290;2022-12-29T13:43:40;1.83;;;0.90;;
43152;SDS011;28756;49.064;9.290;2022-12-29T13:46:10;1.83;;;0.90;;
43152;SDS011;28756;49.064;9.290;2022-12-29T13:48:45;1.45;;;1.00;;
43152;SDS011;28756;49.064;9.290;2022-12-29T13:51:16;1.40;;;0.88;;
43152;SDS011;28756;49.064;9.290;2022-12-29T13:56:39;2.17;;;0.88;;
43152;SDS011;28756;49.064;9.290;2022-12-29T14:05:43;1.42;;;0.80;;
43152;SDS011;28756;49.064;9.290;2022-12-29T14:08:03;2.25;;;1.05;;
43152;SDS011;28756;49.064;9.290;2022-12-29T14:10:37;3.78;;;1.67;;
43152;SDS011;28756;49.064;9.290;2022-12-29T14:15:42;4.25;;;1.77;;
43152;SDS011;28756;49.064;9.290;2022-12-29T14:18:16;4.82;;;2.20;;
43152;SDS011;28756;49.064;9.290;2022-12-29T14:21:00;4.10;;;2.10;;
43152;SDS011;28756;49.064;9.290;2022-12-29T14:23:39;3.05;;;1.73;;
43152;SDS011;28756;49.064;9.290;2022-12-29T14:28:54;2.95;;;1.10;;
43152;SDS011;28756;49.064;9.290;2022-12-29T14:31:33;2.10;;;1.00;;
43152;SDS011;28756;49.064;9.290;2022-12-29T14:36:37;2.25;;;0.88;;
43152;SDS011;28756;49.064;9.290;2022-12-29T14:47:26;1.27;;;0.70;;
43152;SDS011;28756;49.064;9.290;2022-12-29T14:49:55;6.15;;;1.05;;
43152;SDS011;28756;49.064;9.290;2022-12-29T14:52:29;1.00;;;0.70;;
43152;SDS011;28756;49.064;9.290;2022-12-29T14:54:56;3.30;;;0.70;;
43152;SDS011;28756;49.064;9.290;2022-12-29T14:57:49;5.30;;;0.77;;
43152;SDS011;28756;49.064;9.290;2022-12-29T15:00:26;2.67;;;0.70;;
43152;SDS011;28756;49.064;9.290;2022-12-29T15:05:44;1.80;;;0.60;;
43152;SDS011;28756;49.064;9.290;2022-12-29T15:08:27;7.35;;;0.63;;
43152;SDS011;28756;49.064;9.290;2022-12-29T15:10:59;1.15;;;0.43;;
43152;SDS011;28756;49.064;9.290;2022-12-29T15:13:43;1.00;;;0.60;;
43152;SDS011;28756;49.064;9.290;2022-12-29T15:16:26;0.93;;;0.50;;
43152;SDS011;28756;49.064;9.290;2022-12-29T15:18:57;0.60;;;0.50;;
43152;SDS011;28756;49.064;9.290;2022-12-29T15:21:25;4.28;;;0.70;;
43152;SDS011;28756;49.064;9.290;2022-12-29T15:23:54;1.33;;;0.55;;
43152;SDS011;28756;49.064;9.290;2022-12-29T15:26:20;1.25;;;0.68;;
43152;SDS011;28756;49.064;9.290;2022-12-29T15:28:48;4.05;;;0.80;;
43152;SDS011;28756;49.064;9.290;2022-12-29T15:33:46;0.93;;;0.60;;
43152;SDS011;28756;49.064;9.290;2022-12-29T15:36:23;3.40;;;0.75;;
43152;SDS011;28756;49.064;9.290;2022-12-29T15:38:51;4.30;;;1.63;;
43152;SDS011;28756;49.064;9.290;2022-12-29T15:41:32;3.00;;;0.90;;
43152;SDS011;28756;49.064;9.290;2022-12-29T15:44:39;1.70;;;0.85;;
43152;SDS011;28756;49.064;9.290;2022-12-29T15:47:16;2.78;;;0.80;;
43152;SDS011;28756;49.064;9.290;2022-12-29T15:49:51;3.08;;;0.80;;
43152;SDS011;28756;49.064;9.290;2022-12-29T15:52:23;1.00;;;0.50;;
43152;SDS011;28756;49.064;9.290;2022-12-29T15:54:49;1.30;;;0.50;;
43152;SDS011;28756;49.064;9.290;2022-12-29T15:57:31;0.77;;;0.47;;
43152;SDS011;28756;49.064;9.290;2022-12-29T16:03:12;2.58;;;0.65;;
43152;SDS011;28756;49.064;9.290;2022-12-29T16:05:40;3.70;;;1.20;;
43152;SDS011;28756;49.064;9.290;2022-12-29T16:08:24;1.42;;;0.90;;
43152;SDS011;28756;49.064;9.290;2022-12-29T16:11:02;1.25;;;0.70;;
43152;SDS011;28756;49.064;9.290;2022-12-29T16:13:51;2.08;;;0.80;;
43152;SDS011;28756;49.064;9.290;2022-12-29T16:16:25;1.05;;;0.77;;
43152;SDS011;28756;49.064;9.290;2022-12-29T16:19:21;1.95;;;1.00;;
43152;SDS011;28756;49.064;9.290;2022-12-29T16:21:58;1.92;;;1.10;;
43152;SDS011;28756;49.064;9.290;2022-12-29T16:24:26;4.55;;;2.53;;
43152;SDS011;28756;49.064;9.290;2022-12-29T16:27:06;5.75;;;4.25;;
43152;SDS011;28756;49.064;9.290;2022-12-29T16:29:41;2.10;;;1.77;;
43152;SDS011;28756;49.064;9.290;2022-12-29T16:32:30;3.08;;;1.90;;
43152;SDS011;28756;49.064;9.290;2022-12-29T16:38:16;7.90;;;4.40;;
43152;SDS011;28756;49.064;9.290;2022-12-29T16:40:50;14.30;;;6.13;;
43152;SDS011;28756;49.064;9.290;2022-12-29T16:43:24;31.92;;;12.68;;
43152;SDS011;28756;49.064;9.290;2022-12-29T16:48:25;7.97;;;4.00;;
43152;SDS011;28756;49.064;9.290;2022-12-29T16:51:16;3.58;;;1.88;;
43152;SDS011;28756;49.064;9.290;2022-12-29T16:53:59;5.53;;;1.40;;
43152;SDS011;28756;49.064;9.290;2022-12-29T16:56:27;2.60;;;1.20;;
43152;SDS011;28756;49.064;9.290;2022-12-29T16:59:04;1.73;;;1.10;;
43152;SDS011;28756;49.064;9.290;2022-12-29T17:01:41;2.25;;;1.00;;
43152;SDS011;28756;49.064;9.290;2022-12-29T17:04:11;1.42;;;0.82;;
43152;SDS011;28756;49.064;9.290;2022-12-29T17:06:38;3.25;;;1.17;;
43152;SDS011;28756;49.064;9.290;2022-12-29T17:09:18;4.07;;;1.17;;
43152;SDS011;28756;49.064;9.290;2022-12-29T17:11:56;1.80;;;1.10;;
43152;SDS011;28756;49.064;9.290;2022-12-29T17:14:42;1.92;;;1.23;;
43152;SDS011;28756;49.064;9.290;2022-12-29T17:17:19;2.55;;;1.40;;
43152;SDS011;28756;49.064;9.290;2022-12-29T17:19:55;2.08;;;1.00;;
43152;SDS011;28756;49.064;9.290;2022-12-29T17:22:28;1.00;;;0.90;;
43152;SDS011;28756;49.064;9.290;2022-12-29T17:24:55;1.83;;;1.15;;
43152;SDS011;28756;49.064;9.290;2022-12-29T17:27:26;1.25;;;0.77;;
43152;SDS011;28756;49.064;9.290;2022-12-29T17:30:01;1.92;;;0.90;;
43152;SDS011;28756;49.064;9.290;2022-12-29T17:32:35;2.60;;;1.13;;
43152;SDS011;28756;49.064;9.290;2022-12-29T17:35:02;3.92;;;1.38;;
43152;SDS011;28756;49.064;9.290;2022-12-29T17:37:29;2.20;;;1.20;;
43152;SDS011;28756;49.064;9.290;2022-12-29T17:40:03;3.20;;;1.02;;
43152;SDS011;28756;49.064;9.290;2022-12-29T17:42:32;2.13;;;1.00;;
43152;SDS011;28756;49.064;9.290;2022-12-29T17:45:04;1.88;;;1.10;;
43152;SDS011;28756;49.064;9.290;2022-12-29T17:47:31;2.95;;;1.20;;
43152;SDS011;28756;49.064;9.290;2022-12-29T17:49:59;2.50;;;1.00;;
43152;SDS011;28756;49.064;9.290;2022-12-29T17:52:25;2.97;;;1.10;;
43152;SDS011;28756;49.064;9.290;2022-12-29T17:54:51;2.67;;;1.15;;
43152;SDS011;28756;49.064;9.290;2022-12-29T17:57:19;2.13;;;1.02;;
43152;SDS011;28756;49.064;9.290;2022-12-29T17:59:45;2.05;;;0.98;;